sensor_id;sensor_type;location;lat;lon;timestamp;P1;durP1;ratioP1;P2;durP2;ratioP2
75526;SDS011;64107;49.248;7.006;2023-01-31T00:00:22;29.00;;;11.95;;
75526;SDS011;64107;49.248;7.006;2023-01-31T00:02:48;37.20;;;14.75;;
75526;SDS011;64107;49.248;7.006;2023-01-31T00:05:14;32.47;;;13.13;;
75526;SDS011;64107;49.248;7.006;2023-01-31T00:10:07;28.85;;;12.02;;
75526;SDS011;64107;49.248;7.006;2023-01-31T00:12:33;39.38;;;13.30;;
75526;SDS011;64107;49.248;7.006;2023-01-31T00:15:00;32.85;;;13.13;;
75526;SDS011;64107;49.248;7.006;2023-01-31T00:17:26;27.92;;;10.82;;
75526;SDS011;64107;49.248;7.006;2023-01-31T00:19:52;29.10;;;10.82;;
75526;SDS011;64107;49.248;7.006;2023-01-31T00:22:18;28.88;;;11.70;;
75526;SDS011;64107;49.248;7.006;2023-01-31T00:24:44;25.80;;;11.27;;
75526;SDS011;64107;49.248;7.006;2023-01-31T00:27:10;31.70;;;12.70;;
75526;SDS011;64107;49.248;7.006;2023-01-31T00:29:36;23.52;;;9.98;;
75526;SDS011;64107;49.248;7.006;2023-01-31T00:32:02;30.33;;;11.43;;
75526;SDS011;64107;49.248;7.006;2023-01-31T00:34:28;37.97;;;12.60;;
75526;SDS011;64107;49.248;7.006;2023-01-31T00:36:54;26.60;;;11.20;;
75526;SDS011;64107;49.248;7.006;2023-01-31T00:39:20;31.63;;;12.00;;
75526;SDS011;64107;49.248;7.006;2023-01-31T00:41:46;30.52;;;10.85;;
75526;SDS011;64107;49.248;7.006;2023-01-31T00:44:12;26.73;;;10.45;;
75526;SDS011;64107;49.248;7.006;2023-01-31T00:46:38;21.55;;;9.05;;
75526;SDS011;64107;49.248;7.006;2023-01-31T00:49:05;32.65;;;14.20;;
75526;SDS011;64107;49.248;7.006;2023-01-31T00:51:31;30.33;;;10.82;;
75526;SDS011;64107;49.248;7.006;2023-01-31T00:53:57;28.55;;;12.70;;
75526;SDS011;64107;49.248;7.006;2023-01-31T00:56:23;25.90;;;11.63;;
75526;SDS011;64107;49.248;7.006;2023-01-31T01:01:19;30.00;;;11.25;;
75526;SDS011;64107;49.248;7.006;2023-01-31T01:03:47;35.60;;;13.70;;
75526;SDS011;64107;49.248;7.006;2023-01-31T01:06:14;21.77;;;9.65;;
75526;SDS011;64107;49.248;7.006;2023-01-31T01:08:40;25.15;;;10.63;;
75526;SDS011;64107;49.248;7.006;2023-01-31T01:11:40;29.55;;;10.40;;
75526;SDS011;64107;49.248;7.006;2023-01-31T01:14:00;28.77;;;11.48;;
75526;SDS011;64107;49.248;7.006;2023-01-31T01:16:29;23.08;;;10.45;;
75526;SDS011;64107;49.248;7.006;2023-01-31T01:18:57;25.65;;;10.77;;
75526;SDS011;64107;49.248;7.006;2023-01-31T01:21:26;22.63;;;8.82;;
75526;SDS011;64107;49.248;7.006;2023-01-31T01:23:57;26.73;;;9.20;;
75526;SDS011;64107;49.248;7.006;2023-01-31T01:26:27;31.77;;;12.48;;
75526;SDS011;64107;49.248;7.006;2023-01-31T01:28:55;25.50;;;10.70;;
75526;SDS011;64107;49.248;7.006;2023-01-31T01:31:22;33.47;;;12.30;;
75526;SDS011;64107;49.248;7.006;2023-01-31T01:33:58;22.52;;;9.63;;
75526;SDS011;64107;49.248;7.006;2023-01-31T01:36:26;39.80;;;15.30;;
75526;SDS011;64107;49.248;7.006;2023-01-31T01:38:52;23.98;;;10.63;;
75526;SDS011;64107;49.248;7.006;2023-01-31T01:43:46;27.70;;;9.43;;
75526;SDS011;64107;49.248;7.006;2023-01-31T01:46:22;26.40;;;9.40;;
75526;SDS011;64107;49.248;7.006;2023-01-31T01:48:53;24.27;;;9.60;;
75526;SDS011;64107;49.248;7.006;2023-01-31T01:51:21;31.63;;;12.57;;
75526;SDS011;64107;49.248;7.006;2023-01-31T01:53:49;26.90;;;11.60;;
75526;SDS011;64107;49.248;7.006;2023-01-31T01:56:20;31.35;;;11.70;;
75526;SDS011;64107;49.248;7.006;2023-01-31T01:59:04;28.45;;;12.57;;
75526;SDS011;64107;49.248;7.006;2023-01-31T02:01:34;35.83;;;13.63;;
75526;SDS011;64107;49.248;7.006;2023-01-31T02:04:01;32.10;;;11.38;;
75526;SDS011;64107;49.248;7.006;2023-01-31T02:06:29;27.52;;;9.93;;
75526;SDS011;64107;49.248;7.006;2023-01-31T02:08:55;29.80;;;12.30;;
75526;SDS011;64107;49.248;7.006;2023-01-31T02:11:22;40.72;;;14.25;;
75526;SDS011;64107;49.248;7.006;2023-01-31T02:13:51;34.92;;;13.40;;
75526;SDS011;64107;49.248;7.006;2023-01-31T02:16:32;29.63;;;9.52;;
75526;SDS011;64107;49.248;7.006;2023-01-31T02:18:58;22.52;;;8.90;;
75526;SDS011;64107;49.248;7.006;2023-01-31T02:24:24;40.63;;;14.63;;
75526;SDS011;64107;49.248;7.006;2023-01-31T02:27:22;27.63;;;11.35;;
75526;SDS011;64107;49.248;7.006;2023-01-31T02:32:51;45.22;;;15.38;;
75526;SDS011;64107;49.248;7.006;2023-01-31T02:41:17;32.13;;;9.90;;
75526;SDS011;64107;49.248;7.006;2023-01-31T02:43:53;32.95;;;11.73;;
75526;SDS011;64107;49.248;7.006;2023-01-31T02:49:21;37.80;;;13.40;;
75526;SDS011;64107;49.248;7.006;2023-01-31T02:52:24;21.40;;;8.82;;
75526;SDS011;64107;49.248;7.006;2023-01-31T02:55:12;30.70;;;11.05;;
75526;SDS011;64107;49.248;7.006;2023-01-31T02:58:19;36.35;;;11.32;;
75526;SDS011;64107;49.248;7.006;2023-01-31T03:00:46;32.97;;;10.25;;
75526;SDS011;64107;49.248;7.006;2023-01-31T03:03:17;22.88;;;7.38;;
75526;SDS011;64107;49.248;7.006;2023-01-31T03:08:47;32.53;;;12.10;;
75526;SDS011;64107;49.248;7.006;2023-01-31T03:11:17;28.17;;;10.32;;
75526;SDS011;64107;49.248;7.006;2023-01-31T03:13:46;13.70;;;6.15;;
75526;SDS011;64107;49.248;7.006;2023-01-31T03:16:22;19.52;;;7.00;;
75526;SDS011;64107;49.248;7.006;2023-01-31T03:19:22;20.48;;;7.20;;
75526;SDS011;64107;49.248;7.006;2023-01-31T03:21:57;18.15;;;7.43;;
75526;SDS011;64107;49.248;7.006;2023-01-31T03:24:27;9.98;;;4.25;;
75526;SDS011;64107;49.248;7.006;2023-01-31T03:26:54;4.75;;;3.85;;
75526;SDS011;64107;49.248;7.006;2023-01-31T03:29:22;24.10;;;8.25;;
75526;SDS011;64107;49.248;7.006;2023-01-31T03:31:52;24.90;;;8.55;;
75526;SDS011;64107;49.248;7.006;2023-01-31T03:34:23;16.45;;;6.60;;
75526;SDS011;64107;49.248;7.006;2023-01-31T03:36:55;9.52;;;5.35;;
75526;SDS011;64107;49.248;7.006;2023-01-31T03:39:45;12.98;;;4.78;;
75526;SDS011;64107;49.248;7.006;2023-01-31T03:42:19;17.05;;;7.57;;
75526;SDS011;64107;49.248;7.006;2023-01-31T03:45:05;14.90;;;7.63;;
75526;SDS011;64107;49.248;7.006;2023-01-31T03:47:36;4.07;;;2.47;;
75526;SDS011;64107;49.248;7.006;2023-01-31T03:50:09;5.40;;;4.15;;
75526;SDS011;64107;49.248;7.006;2023-01-31T03:53:42;21.48;;;9.02;;
75526;SDS011;64107;49.248;7.006;2023-01-31T03:55:48;10.93;;;3.35;;
75526;SDS011;64107;49.248;7.006;2023-01-31T03:58:17;25.38;;;9.77;;
75526;SDS011;64107;49.248;7.006;2023-01-31T04:00:45;8.80;;;4.28;;
75526;SDS011;64107;49.248;7.006;2023-01-31T04:03:20;9.68;;;5.40;;
75526;SDS011;64107;49.248;7.006;2023-01-31T04:05:52;6.72;;;3.08;;
75526;SDS011;64107;49.248;7.006;2023-01-31T04:08:19;11.75;;;5.78;;
75526;SDS011;64107;49.248;7.006;2023-01-31T04:10:45;9.70;;;3.92;;
75526;SDS011;64107;49.248;7.006;2023-01-31T04:13:11;8.23;;;4.00;;
75526;SDS011;64107;49.248;7.006;2023-01-31T04:18:03;8.15;;;4.72;;
75526;SDS011;64107;49.248;7.006;2023-01-31T04:20:29;21.20;;;8.57;;
75526;SDS011;64107;49.248;7.006;2023-01-31T04:22:55;7.40;;;3.40;;
75526;SDS011;64107;49.248;7.006;2023-01-31T04:25:23;12.40;;;5.47;;
75526;SDS011;64107;49.248;7.006;2023-01-31T04:30:16;19.55;;;7.65;;
75526;SDS011;64107;49.248;7.006;2023-01-31T04:32:42;5.88;;;3.50;;
75526;SDS011;64107;49.248;7.006;2023-01-31T04:35:08;14.10;;;6.47;;
75526;SDS011;64107;49.248;7.006;2023-01-31T04:37:34;28.25;;;9.32;;
75526;SDS011;64107;49.248;7.006;2023-01-31T04:40:00;18.15;;;6.20;;
75526;SDS011;64107;49.248;7.006;2023-01-31T04:42:26;17.55;;;6.18;;
75526;SDS011;64107;49.248;7.006;2023-01-31T04:44:52;31.15;;;7.75;;
75526;SDS011;64107;49.248;7.006;2023-01-31T04:47:18;17.55;;;6.93;;
75526;SDS011;64107;49.248;7.006;2023-01-31T04:49:45;7.55;;;3.40;;
75526;SDS011;64107;49.248;7.006;2023-01-31T04:52:11;10.77;;;5.63;;
75526;SDS011;64107;49.248;7.006;2023-01-31T04:54:37;7.10;;;3.35;;
75526;SDS011;64107;49.248;7.006;2023-01-31T04:57:03;10.07;;;4.90;;
75526;SDS011;64107;49.248;7.006;2023-01-31T04:59:29;18.42;;;5.93;;
75526;SDS011;64107;49.248;7.006;2023-01-31T05:01:55;14.90;;;6.32;;
75526;SDS011;64107;49.248;7.006;2023-01-31T05:04:21;16.63;;;6.70;;
75526;SDS011;64107;49.248;7.006;2023-01-31T05:06:47;13.18;;;3.63;;
75526;SDS011;64107;49.248;7.006;2023-01-31T05:09:13;20.05;;;7.65;;
75526;SDS011;64107;49.248;7.006;2023-01-31T05:11:40;10.90;;;4.90;;
75526;SDS011;64107;49.248;7.006;2023-01-31T05:14:06;21.10;;;7.80;;
75526;SDS011;64107;49.248;7.006;2023-01-31T05:16:32;14.48;;;6.45;;
75526;SDS011;64107;49.248;7.006;2023-01-31T05:18:58;11.15;;;3.92;;
75526;SDS011;64107;49.248;7.006;2023-01-31T05:21:25;9.20;;;3.95;;
75526;SDS011;64107;49.248;7.006;2023-01-31T05:23:51;12.07;;;5.03;;
75526;SDS011;64107;49.248;7.006;2023-01-31T05:26:17;20.88;;;7.78;;
75526;SDS011;64107;49.248;7.006;2023-01-31T05:28:43;17.75;;;6.10;;
75526;SDS011;64107;49.248;7.006;2023-01-31T05:31:09;14.07;;;6.20;;
75526;SDS011;64107;49.248;7.006;2023-01-31T05:33:37;6.85;;;3.78;;
75526;SDS011;64107;49.248;7.006;2023-01-31T05:36:03;28.08;;;6.47;;
75526;SDS011;64107;49.248;7.006;2023-01-31T05:38:29;14.50;;;4.93;;
75526;SDS011;64107;49.248;7.006;2023-01-31T05:40:55;28.88;;;9.55;;
75526;SDS011;64107;49.248;7.006;2023-01-31T05:43:21;23.70;;;8.70;;
75526;SDS011;64107;49.248;7.006;2023-01-31T05:45:47;23.08;;;8.65;;
75526;SDS011;64107;49.248;7.006;2023-01-31T05:50:39;23.88;;;7.22;;
75526;SDS011;64107;49.248;7.006;2023-01-31T05:53:06;15.52;;;4.97;;
75526;SDS011;64107;49.248;7.006;2023-01-31T05:55:33;17.55;;;4.95;;
75526;SDS011;64107;49.248;7.006;2023-01-31T05:57:59;21.42;;;3.65;;
75526;SDS011;64107;49.248;7.006;2023-01-31T06:00:25;22.20;;;8.98;;
75526;SDS011;64107;49.248;7.006;2023-01-31T06:02:51;21.75;;;7.55;;
75526;SDS011;64107;49.248;7.006;2023-01-31T06:05:22;24.00;;;5.88;;
75526;SDS011;64107;49.248;7.006;2023-01-31T06:07:48;28.92;;;8.85;;
75526;SDS011;64107;49.248;7.006;2023-01-31T06:10:14;33.28;;;10.13;;
75526;SDS011;64107;49.248;7.006;2023-01-31T06:12:40;18.80;;;6.65;;
75526;SDS011;64107;49.248;7.006;2023-01-31T06:15:06;18.55;;;5.95;;
75526;SDS011;64107;49.248;7.006;2023-01-31T06:17:32;32.30;;;10.20;;
75526;SDS011;64107;49.248;7.006;2023-01-31T06:19:58;25.50;;;8.82;;
75526;SDS011;64107;49.248;7.006;2023-01-31T06:22:24;9.85;;;4.20;;
75526;SDS011;64107;49.248;7.006;2023-01-31T06:24:51;18.65;;;7.28;;
75526;SDS011;64107;49.248;7.006;2023-01-31T06:27:17;23.77;;;7.72;;
75526;SDS011;64107;49.248;7.006;2023-01-31T06:29:43;7.68;;;4.45;;
75526;SDS011;64107;49.248;7.006;2023-01-31T06:32:09;12.60;;;4.63;;
75526;SDS011;64107;49.248;7.006;2023-01-31T06:34:35;12.43;;;5.68;;
75526;SDS011;64107;49.248;7.006;2023-01-31T06:37:01;24.15;;;7.97;;
75526;SDS011;64107;49.248;7.006;2023-01-31T06:39:27;22.33;;;7.63;;
75526;SDS011;64107;49.248;7.006;2023-01-31T06:41:53;19.52;;;7.00;;
75526;SDS011;64107;49.248;7.006;2023-01-31T06:44:19;17.48;;;4.32;;
75526;SDS011;64107;49.248;7.006;2023-01-31T06:46:45;26.42;;;7.47;;
75526;SDS011;64107;49.248;7.006;2023-01-31T06:49:11;29.35;;;9.27;;
75526;SDS011;64107;49.248;7.006;2023-01-31T06:54:03;28.95;;;10.10;;
75526;SDS011;64107;49.248;7.006;2023-01-31T06:56:30;36.45;;;10.98;;
75526;SDS011;64107;49.248;7.006;2023-01-31T07:01:22;26.35;;;9.15;;
75526;SDS011;64107;49.248;7.006;2023-01-31T07:03:48;15.55;;;4.15;;
75526;SDS011;64107;49.248;7.006;2023-01-31T07:06:14;13.38;;;4.43;;
75526;SDS011;64107;49.248;7.006;2023-01-31T07:08:43;23.35;;;9.32;;
75526;SDS011;64107;49.248;7.006;2023-01-31T07:13:36;33.22;;;11.55;;
75526;SDS011;64107;49.248;7.006;2023-01-31T07:16:02;10.00;;;5.32;;
75526;SDS011;64107;49.248;7.006;2023-01-31T07:18:28;6.45;;;3.67;;
75526;SDS011;64107;49.248;7.006;2023-01-31T07:20:54;17.48;;;8.05;;
75526;SDS011;64107;49.248;7.006;2023-01-31T07:23:20;8.75;;;4.68;;
75526;SDS011;64107;49.248;7.006;2023-01-31T07:25:46;8.45;;;4.30;;
75526;SDS011;64107;49.248;7.006;2023-01-31T07:28:12;8.02;;;5.10;;
75526;SDS011;64107;49.248;7.006;2023-01-31T07:30:38;24.77;;;8.60;;
75526;SDS011;64107;49.248;7.006;2023-01-31T07:33:07;28.10;;;6.78;;
75526;SDS011;64107;49.248;7.006;2023-01-31T07:35:34;16.52;;;6.85;;
75526;SDS011;64107;49.248;7.006;2023-01-31T07:38:00;22.60;;;7.97;;
75526;SDS011;64107;49.248;7.006;2023-01-31T07:40:26;25.50;;;6.13;;
75526;SDS011;64107;49.248;7.006;2023-01-31T07:42:58;20.67;;;7.97;;
75526;SDS011;64107;49.248;7.006;2023-01-31T07:45:25;17.58;;;5.03;;
75526;SDS011;64107;49.248;7.006;2023-01-31T07:47:51;26.33;;;9.52;;
75526;SDS011;64107;49.248;7.006;2023-01-31T07:52:44;17.48;;;5.97;;
75526;SDS011;64107;49.248;7.006;2023-01-31T07:55:10;19.15;;;5.82;;
75526;SDS011;64107;49.248;7.006;2023-01-31T07:57:36;16.98;;;6.00;;
75526;SDS011;64107;49.248;7.006;2023-01-31T08:00:02;21.65;;;9.05;;
75526;SDS011;64107;49.248;7.006;2023-01-31T08:02:48;19.05;;;8.07;;
75526;SDS011;64107;49.248;7.006;2023-01-31T08:05:33;27.92;;;9.52;;
75526;SDS011;64107;49.248;7.006;2023-01-31T08:07:59;24.17;;;10.70;;
75526;SDS011;64107;49.248;7.006;2023-01-31T08:10:34;20.75;;;8.13;;
75526;SDS011;64107;49.248;7.006;2023-01-31T08:13:00;15.30;;;6.47;;
75526;SDS011;64107;49.248;7.006;2023-01-31T08:15:26;24.58;;;10.45;;
75526;SDS011;64107;49.248;7.006;2023-01-31T08:17:52;22.90;;;8.95;;
75526;SDS011;64107;49.248;7.006;2023-01-31T08:20:18;16.60;;;7.57;;
75526;SDS011;64107;49.248;7.006;2023-01-31T08:22:44;19.95;;;6.68;;
75526;SDS011;64107;49.248;7.006;2023-01-31T08:25:10;23.05;;;8.75;;
75526;SDS011;64107;49.248;7.006;2023-01-31T08:27:36;8.90;;;3.42;;
75526;SDS011;64107;49.248;7.006;2023-01-31T08:30:02;19.50;;;7.72;;
75526;SDS011;64107;49.248;7.006;2023-01-31T08:32:29;10.50;;;4.82;;
75526;SDS011;64107;49.248;7.006;2023-01-31T08:34:55;28.23;;;8.80;;
75526;SDS011;64107;49.248;7.006;2023-01-31T08:37:21;12.15;;;4.95;;
75526;SDS011;64107;49.248;7.006;2023-01-31T08:39:47;8.55;;;3.17;;
75526;SDS011;64107;49.248;7.006;2023-01-31T08:42:13;8.07;;;3.03;;
75526;SDS011;64107;49.248;7.006;2023-01-31T08:44:39;11.15;;;5.15;;
75526;SDS011;64107;49.248;7.006;2023-01-31T08:47:07;15.68;;;6.97;;
75526;SDS011;64107;49.248;7.006;2023-01-31T08:49:33;18.52;;;6.03;;
75526;SDS011;64107;49.248;7.006;2023-01-31T08:52:00;8.38;;;4.32;;
75526;SDS011;64107;49.248;7.006;2023-01-31T08:54:27;8.40;;;4.25;;
75526;SDS011;64107;49.248;7.006;2023-01-31T08:56:53;10.63;;;2.47;;
75526;SDS011;64107;49.248;7.006;2023-01-31T08:59:19;13.70;;;5.03;;
75526;SDS011;64107;49.248;7.006;2023-01-31T09:01:45;10.10;;;3.20;;
75526;SDS011;64107;49.248;7.006;2023-01-31T09:04:11;8.75;;;4.28;;
75526;SDS011;64107;49.248;7.006;2023-01-31T09:06:37;4.72;;;3.08;;
75526;SDS011;64107;49.248;7.006;2023-01-31T09:09:04;12.23;;;4.97;;
75526;SDS011;64107;49.248;7.006;2023-01-31T09:11:30;5.45;;;1.92;;
75526;SDS011;64107;49.248;7.006;2023-01-31T09:13:56;6.00;;;3.47;;
75526;SDS011;64107;49.248;7.006;2023-01-31T09:16:22;14.15;;;4.60;;
75526;SDS011;64107;49.248;7.006;2023-01-31T09:18:48;11.23;;;3.63;;
75526;SDS011;64107;49.248;7.006;2023-01-31T09:21:16;5.70;;;5.18;;
75526;SDS011;64107;49.248;7.006;2023-01-31T09:23:44;14.05;;;3.92;;
75526;SDS011;64107;49.248;7.006;2023-01-31T09:26:11;15.18;;;4.25;;
75526;SDS011;64107;49.248;7.006;2023-01-31T09:28:37;4.35;;;2.80;;
75526;SDS011;64107;49.248;7.006;2023-01-31T09:31:08;8.02;;;3.38;;
75526;SDS011;64107;49.248;7.006;2023-01-31T09:33:38;11.32;;;4.85;;
75526;SDS011;64107;49.248;7.006;2023-01-31T09:36:05;6.32;;;3.50;;
75526;SDS011;64107;49.248;7.006;2023-01-31T09:38:33;13.05;;;5.35;;
75526;SDS011;64107;49.248;7.006;2023-01-31T09:41:00;13.95;;;5.05;;
75526;SDS011;64107;49.248;7.006;2023-01-31T09:43:35;8.35;;;3.10;;
75526;SDS011;64107;49.248;7.006;2023-01-31T09:46:04;16.83;;;6.53;;
75526;SDS011;64107;49.248;7.006;2023-01-31T09:48:33;15.68;;;6.78;;
75526;SDS011;64107;49.248;7.006;2023-01-31T09:51:01;6.30;;;2.78;;
75526;SDS011;64107;49.248;7.006;2023-01-31T09:53:29;10.00;;;4.70;;
75526;SDS011;64107;49.248;7.006;2023-01-31T10:01:23;15.90;;;5.78;;
75526;SDS011;64107;49.248;7.006;2023-01-31T10:07:31;18.58;;;7.25;;
75526;SDS011;64107;49.248;7.006;2023-01-31T10:10:36;14.10;;;5.63;;
75526;SDS011;64107;49.248;7.006;2023-01-31T10:12:58;16.42;;;7.88;;
75526;SDS011;64107;49.248;7.006;2023-01-31T10:15:34;11.45;;;5.15;;
75526;SDS011;64107;49.248;7.006;2023-01-31T10:18:05;19.17;;;6.75;;
75526;SDS011;64107;49.248;7.006;2023-01-31T10:20:39;15.32;;;5.88;;
75526;SDS011;64107;49.248;7.006;2023-01-31T10:23:14;19.17;;;8.75;;
75526;SDS011;64107;49.248;7.006;2023-01-31T10:26:02;9.57;;;4.95;;
75526;SDS011;64107;49.248;7.006;2023-01-31T10:28:47;12.27;;;5.20;;
75526;SDS011;64107;49.248;7.006;2023-01-31T10:31:29;11.25;;;5.18;;
75526;SDS011;64107;49.248;7.006;2023-01-31T10:36:35;12.18;;;5.05;;
75526;SDS011;64107;49.248;7.006;2023-01-31T10:44:24;10.70;;;5.18;;
75526;SDS011;64107;49.248;7.006;2023-01-31T10:46:58;9.70;;;4.18;;
75526;SDS011;64107;49.248;7.006;2023-01-31T10:49:25;11.35;;;5.13;;
75526;SDS011;64107;49.248;7.006;2023-01-31T10:51:55;10.48;;;4.35;;
75526;SDS011;64107;49.248;7.006;2023-01-31T10:57:26;12.80;;;5.13;;
75526;SDS011;64107;49.248;7.006;2023-01-31T11:02:22;14.45;;;6.30;;
75526;SDS011;64107;49.248;7.006;2023-01-31T11:04:58;17.40;;;4.03;;
75526;SDS011;64107;49.248;7.006;2023-01-31T11:07:27;6.15;;;3.35;;
75526;SDS011;64107;49.248;7.006;2023-01-31T11:09:55;9.10;;;4.50;;
75526;SDS011;64107;49.248;7.006;2023-01-31T11:12:40;16.10;;;8.18;;
75526;SDS011;64107;49.248;7.006;2023-01-31T11:15:17;14.13;;;6.90;;
75526;SDS011;64107;49.248;7.006;2023-01-31T11:17:44;12.45;;;5.05;;
75526;SDS011;64107;49.248;7.006;2023-01-31T11:22:48;10.30;;;3.38;;
75526;SDS011;64107;49.248;7.006;2023-01-31T11:25:18;10.32;;;5.60;;
75526;SDS011;64107;49.248;7.006;2023-01-31T11:27:46;9.90;;;3.90;;
75526;SDS011;64107;49.248;7.006;2023-01-31T11:30:26;6.88;;;3.47;;
75526;SDS011;64107;49.248;7.006;2023-01-31T11:32:56;13.85;;;5.57;;
75526;SDS011;64107;49.248;7.006;2023-01-31T11:35:24;9.48;;;4.95;;
75526;SDS011;64107;49.248;7.006;2023-01-31T11:37:59;8.77;;;3.13;;
75526;SDS011;64107;49.248;7.006;2023-01-31T11:40:35;4.05;;;2.28;;
75526;SDS011;64107;49.248;7.006;2023-01-31T11:43:03;8.10;;;4.03;;
75526;SDS011;64107;49.248;7.006;2023-01-31T11:45:42;7.38;;;3.13;;
75526;SDS011;64107;49.248;7.006;2023-01-31T11:50:50;10.02;;;4.93;;
75526;SDS011;64107;49.248;7.006;2023-01-31T11:53:21;6.25;;;3.67;;
75526;SDS011;64107;49.248;7.006;2023-01-31T11:56:09;11.55;;;5.70;;
75526;SDS011;64107;49.248;7.006;2023-01-31T11:58:38;7.10;;;3.58;;
75526;SDS011;64107;49.248;7.006;2023-01-31T12:01:18;7.13;;;1.92;;
75526;SDS011;64107;49.248;7.006;2023-01-31T12:03:54;9.68;;;5.18;;
75526;SDS011;64107;49.248;7.006;2023-01-31T12:09:19;4.97;;;3.47;;
75526;SDS011;64107;49.248;7.006;2023-01-31T12:14:47;14.45;;;6.05;;
75526;SDS011;64107;49.248;7.006;2023-01-31T12:17:14;6.78;;;3.75;;
75526;SDS011;64107;49.248;7.006;2023-01-31T12:19:54;11.68;;;5.60;;
75526;SDS011;64107;49.248;7.006;2023-01-31T12:25:01;16.05;;;7.95;;
75526;SDS011;64107;49.248;7.006;2023-01-31T12:33:46;14.65;;;6.85;;
75526;SDS011;64107;49.248;7.006;2023-01-31T12:39:14;12.80;;;5.45;;
75526;SDS011;64107;49.248;7.006;2023-01-31T12:41:59;9.10;;;3.55;;
75526;SDS011;64107;49.248;7.006;2023-01-31T12:50:17;6.93;;;3.65;;
75526;SDS011;64107;49.248;7.006;2023-01-31T12:53:09;10.63;;;5.05;;
75526;SDS011;64107;49.248;7.006;2023-01-31T12:55:53;16.42;;;6.57;;
75526;SDS011;64107;49.248;7.006;2023-01-31T12:59:03;14.23;;;5.43;;
75526;SDS011;64107;49.248;7.006;2023-01-31T13:01:43;10.73;;;4.68;;
75526;SDS011;64107;49.248;7.006;2023-01-31T13:04:47;14.43;;;7.22;;
75526;SDS011;64107;49.248;7.006;2023-01-31T13:07:28;14.93;;;6.75;;
75526;SDS011;64107;49.248;7.006;2023-01-31T13:10:06;18.63;;;7.10;;
75526;SDS011;64107;49.248;7.006;2023-01-31T13:12:48;10.75;;;4.68;;
75526;SDS011;64107;49.248;7.006;2023-01-31T13:15:30;8.00;;;2.97;;
75526;SDS011;64107;49.248;7.006;2023-01-31T13:18:07;10.80;;;5.13;;
75526;SDS011;64107;49.248;7.006;2023-01-31T13:20:55;10.57;;;3.75;;
75526;SDS011;64107;49.248;7.006;2023-01-31T13:23:36;15.63;;;7.28;;
75526;SDS011;64107;49.248;7.006;2023-01-31T13:29:06;18.48;;;7.65;;
75526;SDS011;64107;49.248;7.006;2023-01-31T13:31:41;14.25;;;6.13;;
75526;SDS011;64107;49.248;7.006;2023-01-31T13:34:21;11.30;;;4.68;;
75526;SDS011;64107;49.248;7.006;2023-01-31T13:36:59;9.63;;;5.28;;
75526;SDS011;64107;49.248;7.006;2023-01-31T13:39:32;16.73;;;6.05;;
75526;SDS011;64107;49.248;7.006;2023-01-31T13:42:01;17.02;;;7.22;;
75526;SDS011;64107;49.248;7.006;2023-01-31T13:44:27;8.57;;;4.90;;
75526;SDS011;64107;49.248;7.006;2023-01-31T13:46:58;11.45;;;5.22;;
75526;SDS011;64107;49.248;7.006;2023-01-31T13:49:33;8.73;;;3.88;;
75526;SDS011;64107;49.248;7.006;2023-01-31T13:52:08;14.35;;;5.68;;
75526;SDS011;64107;49.248;7.006;2023-01-31T13:54:47;12.63;;;4.60;;
75526;SDS011;64107;49.248;7.006;2023-01-31T13:57:19;15.15;;;5.78;;
75526;SDS011;64107;49.248;7.006;2023-01-31T13:59:53;5.20;;;2.90;;
75526;SDS011;64107;49.248;7.006;2023-01-31T14:02:21;16.20;;;5.30;;
75526;SDS011;64107;49.248;7.006;2023-01-31T14:04:47;11.75;;;6.47;;
75526;SDS011;64107;49.248;7.006;2023-01-31T14:07:15;16.60;;;8.30;;
75526;SDS011;64107;49.248;7.006;2023-01-31T14:14:42;21.05;;;7.25;;
75526;SDS011;64107;49.248;7.006;2023-01-31T14:17:15;18.95;;;6.53;;
75526;SDS011;64107;49.248;7.006;2023-01-31T14:20:00;11.68;;;4.75;;
75526;SDS011;64107;49.248;7.006;2023-01-31T14:22:30;15.18;;;3.85;;
75526;SDS011;64107;49.248;7.006;2023-01-31T14:27:30;13.75;;;4.95;;
75526;SDS011;64107;49.248;7.006;2023-01-31T14:30:09;13.90;;;5.30;;
75526;SDS011;64107;49.248;7.006;2023-01-31T14:35:45;9.85;;;4.45;;
75526;SDS011;64107;49.248;7.006;2023-01-31T14:38:41;17.02;;;4.82;;
75526;SDS011;64107;49.248;7.006;2023-01-31T14:57:50;10.70;;;5.70;;
75526;SDS011;64107;49.248;7.006;2023-01-31T15:00:27;7.95;;;2.45;;
75526;SDS011;64107;49.248;7.006;2023-01-31T15:03:00;11.45;;;4.78;;
75526;SDS011;64107;49.248;7.006;2023-01-31T15:05:40;17.48;;;7.30;;
75526;SDS011;64107;49.248;7.006;2023-01-31T15:13:39;7.75;;;3.75;;
75526;SDS011;64107;49.248;7.006;2023-01-31T15:16:16;16.67;;;5.10;;
75526;SDS011;64107;49.248;7.006;2023-01-31T15:19:07;10.25;;;4.20;;
75526;SDS011;64107;49.248;7.006;2023-01-31T15:24:24;17.90;;;6.35;;
75526;SDS011;64107;49.248;7.006;2023-01-31T15:32:19;16.13;;;7.80;;
75526;SDS011;64107;49.248;7.006;2023-01-31T15:37:57;16.65;;;2.63;;
75526;SDS011;64107;49.248;7.006;2023-01-31T15:40:27;15.80;;;7.63;;
75526;SDS011;64107;49.248;7.006;2023-01-31T15:42:54;16.85;;;7.07;;
75526;SDS011;64107;49.248;7.006;2023-01-31T15:45:40;5.90;;;3.42;;
75526;SDS011;64107;49.248;7.006;2023-01-31T15:50:36;17.08;;;3.47;;
75526;SDS011;64107;49.248;7.006;2023-01-31T15:53:12;13.40;;;3.80;;
75526;SDS011;64107;49.248;7.006;2023-01-31T15:55:39;24.58;;;10.07;;
75526;SDS011;64107;49.248;7.006;2023-01-31T15:58:06;9.07;;;4.05;;
75526;SDS011;64107;49.248;7.006;2023-01-31T16:00:36;20.42;;;5.53;;
75526;SDS011;64107;49.248;7.006;2023-01-31T16:03:04;10.80;;;5.03;;
75526;SDS011;64107;49.248;7.006;2023-01-31T16:05:35;16.65;;;7.05;;
75526;SDS011;64107;49.248;7.006;2023-01-31T16:08:14;21.45;;;8.32;;
75526;SDS011;64107;49.248;7.006;2023-01-31T16:11:00;20.17;;;6.57;;
75526;SDS011;64107;49.248;7.006;2023-01-31T16:13:38;5.40;;;2.72;;
75526;SDS011;64107;49.248;7.006;2023-01-31T16:16:06;14.38;;;6.50;;
75526;SDS011;64107;49.248;7.006;2023-01-31T16:18:38;13.18;;;5.47;;
75526;SDS011;64107;49.248;7.006;2023-01-31T16:21:21;14.15;;;5.85;;
75526;SDS011;64107;49.248;7.006;2023-01-31T16:23:57;14.85;;;6.28;;
75526;SDS011;64107;49.248;7.006;2023-01-31T16:26:32;14.48;;;5.30;;
75526;SDS011;64107;49.248;7.006;2023-01-31T16:29:05;14.55;;;6.75;;
75526;SDS011;64107;49.248;7.006;2023-01-31T16:31:46;11.27;;;5.45;;
75526;SDS011;64107;49.248;7.006;2023-01-31T16:34:24;13.80;;;6.25;;
75526;SDS011;64107;49.248;7.006;2023-01-31T16:36:57;9.82;;;4.90;;
75526;SDS011;64107;49.248;7.006;2023-01-31T16:39:41;9.73;;;5.53;;
75526;SDS011;64107;49.248;7.006;2023-01-31T16:44:44;6.82;;;3.28;;
75526;SDS011;64107;49.248;7.006;2023-01-31T16:52:50;9.90;;;2.28;;
75526;SDS011;64107;49.248;7.006;2023-01-31T17:06:29;12.30;;;5.72;;
75526;SDS011;64107;49.248;7.006;2023-01-31T17:08:55;9.25;;;3.75;;
75526;SDS011;64107;49.248;7.006;2023-01-31T17:11:21;15.13;;;5.57;;
75526;SDS011;64107;49.248;7.006;2023-01-31T17:16:14;6.88;;;3.20;;
75526;SDS011;64107;49.248;7.006;2023-01-31T17:18:48;16.15;;;4.93;;
75526;SDS011;64107;49.248;7.006;2023-01-31T17:21:18;7.72;;;4.18;;
75526;SDS011;64107;49.248;7.006;2023-01-31T17:23:45;6.80;;;4.15;;
75526;SDS011;64107;49.248;7.006;2023-01-31T17:26:18;7.47;;;5.07;;
75526;SDS011;64107;49.248;7.006;2023-01-31T17:28:46;6.75;;;3.53;;
75526;SDS011;64107;49.248;7.006;2023-01-31T17:31:18;12.55;;;4.07;;
75526;SDS011;64107;49.248;7.006;2023-01-31T17:33:46;6.43;;;3.75;;
75526;SDS011;64107;49.248;7.006;2023-01-31T17:36:13;4.75;;;2.55;;
75526;SDS011;64107;49.248;7.006;2023-01-31T17:38:40;7.75;;;3.30;;
75526;SDS011;64107;49.248;7.006;2023-01-31T17:41:09;8.57;;;2.95;;